PWSweather.com
Personal Weather Stations
Station Observations
KKYBOWLI8
Greystone Ii, Bowling Green, KY 42101

Greystone IiBowling Green, KY 42101

Lat: 36.9238, Lon: -86.5206

Elevation: 600

Station Type: Davis Vantage Pro2

Latest ConditionsUpdated 1:10:00 PM CDT Sunday, May 26, 2019
Currently Today's Max Today's Min Today's Average
Temperature 90.1°F32.3°C 90.3°F32.4°C 63.4°F17.4°C 75.0°F23.9°C
Dew Point 75.8°F24.3°C 77.3°F25.2°C 63.4°F17.4°C 70.5°F21.4°C
Winds 3.7 mph SW6.0 kmh SW 4.0 mph -6.4 kmh - - 0.9 mph 1.4 kmh
Wind Gusts 9.0 mph14.5 kmh 13.0 mph20.9 kmh - -
Humidity 63% 100% 61% 88%
Pressure 30.04 in1017.3 mb 30.09 in1019.0 mb 30.04 in1017.3 mb -
Hour Temp Dew Point Humidity Winds Wind Gusts Pressure Precip Precip Rate Daily Precip Total
01:10 PM 90.1°F32.3°C 75.8°F24.3°C 63% 3.7 mph SW6.0 kmh SW 9.0 mph14.5 kmh 30.04 in1017.3 mb 0.00 in0.0 mm 0.00 in0.0 mm 0.00 in0.0 mm
01:00 PM 90.2°F32.3°C 74.9°F23.8°C 61% 4.0 mph SW6.4 kmh SW 11.0 mph17.7 kmh 30.04 in1017.3 mb 0.00 in0.0 mm 0.00 in0.0 mm 0.00 in0.0 mm
12:50 PM 89.5°F31.9°C 74.8°F23.8°C 62% 3.4 mph SW5.5 kmh SW 10.0 mph16.1 kmh 30.04 in1017.3 mb 0.00 in0.0 mm 0.00 in0.0 mm 0.00 in0.0 mm
12:40 PM 90.3°F32.4°C 75.5°F24.2°C 62% 3.0 mph SW4.8 kmh SW 12.0 mph19.3 kmh 30.04 in1017.3 mb 0.00 in0.0 mm 0.00 in0.0 mm 0.00 in0.0 mm
12:30 PM 89.6°F32.0°C 74.9°F23.8°C 62% 3.9 mph SW6.3 kmh SW 9.0 mph14.5 kmh 30.04 in1017.3 mb 0.00 in0.0 mm 0.00 in0.0 mm 0.00 in0.0 mm
12:20 PM 89.1°F31.7°C 74.4°F23.6°C 62% 3.4 mph SW5.5 kmh SW 10.0 mph16.1 kmh 30.05 in1017.6 mb 0.00 in0.0 mm 0.00 in0.0 mm 0.00 in0.0 mm
12:10 PM 88.2°F31.2°C 74.9°F23.8°C 65% 3.9 mph WSW6.3 kmh WSW 11.0 mph17.7 kmh 30.05 in1017.6 mb 0.00 in0.0 mm 0.00 in0.0 mm 0.00 in0.0 mm
12:00 PM 89.1°F31.7°C 76.3°F24.6°C 66% 3.6 mph SW5.8 kmh SW 11.0 mph17.7 kmh 30.05 in1017.6 mb 0.00 in0.0 mm 0.00 in0.0 mm 0.00 in0.0 mm
11:50 AM 87.8°F31.0°C 74.1°F23.4°C 64% 2.7 mph SW4.3 kmh SW 8.0 mph12.9 kmh 30.06 in1017.9 mb 0.00 in0.0 mm 0.00 in0.0 mm 0.00 in0.0 mm
11:40 AM 88.2°F31.2°C 75.4°F24.1°C 66% 2.7 mph SW4.3 kmh SW 9.0 mph14.5 kmh 30.07 in1018.3 mb 0.00 in0.0 mm 0.00 in0.0 mm 0.00 in0.0 mm
11:30 AM 87.8°F31.0°C 75.5°F24.2°C 67% 2.0 mph WSW3.2 kmh WSW 9.0 mph14.5 kmh 30.07 in1018.3 mb 0.00 in0.0 mm 0.00 in0.0 mm 0.00 in0.0 mm
11:20 AM 88.3°F31.3°C 75.9°F24.4°C 67% 2.3 mph SW3.7 kmh SW 7.0 mph11.3 kmh 30.06 in1017.9 mb 0.00 in0.0 mm 0.00 in0.0 mm 0.00 in0.0 mm
11:10 AM 87.9°F31.1°C 75.6°F24.2°C 67% 3.0 mph SW4.8 kmh SW 13.0 mph20.9 kmh 30.07 in1018.3 mb 0.00 in0.0 mm 0.00 in0.0 mm 0.00 in0.0 mm
11:00 AM 88.7°F31.5°C 75.4°F24.1°C 65% 2.0 mph SW3.2 kmh SW 9.0 mph14.5 kmh 30.07 in1018.3 mb 0.00 in0.0 mm 0.00 in0.0 mm 0.00 in0.0 mm
10:50 AM 88.5°F31.4°C 77.0°F25.0°C 69% 2.3 mph SW3.7 kmh SW 6.0 mph9.7 kmh 30.06 in1017.9 mb 0.00 in0.0 mm 0.00 in0.0 mm 0.00 in0.0 mm
10:40 AM 87.5°F30.8°C 76.9°F24.9°C 71% 2.4 mph SW3.9 kmh SW 8.0 mph12.9 kmh 30.06 in1017.9 mb 0.00 in0.0 mm 0.00 in0.0 mm 0.00 in0.0 mm
10:30 AM 87.6°F30.9°C 76.6°F24.8°C 70% 2.2 mph SW3.5 kmh SW 7.0 mph11.3 kmh 30.07 in1018.3 mb 0.00 in0.0 mm 0.00 in0.0 mm 0.00 in0.0 mm
10:20 AM 87.0°F30.6°C 76.0°F24.4°C 70% 2.0 mph SW3.2 kmh SW 8.0 mph12.9 kmh 30.07 in1018.3 mb 0.00 in0.0 mm 0.00 in0.0 mm 0.00 in0.0 mm
10:10 AM 86.8°F30.4°C 76.3°F24.6°C 71% 1.3 mph SW2.1 kmh SW 6.0 mph9.7 kmh 30.07 in1018.3 mb 0.00 in0.0 mm 0.00 in0.0 mm 0.00 in0.0 mm
10:00 AM 86.2°F30.1°C 77.3°F25.2°C 75% 1.2 mph SW1.9 kmh SW 5.0 mph8.0 kmh 30.07 in1018.3 mb 0.00 in0.0 mm 0.00 in0.0 mm 0.00 in0.0 mm
09:50 AM 86.0°F30.0°C 76.3°F24.6°C 73% 1.0 mph SSW1.6 kmh SSW 4.0 mph6.4 kmh 30.07 in1018.3 mb 0.00 in0.0 mm 0.00 in0.0 mm 0.00 in0.0 mm
09:40 AM 84.5°F29.2°C 76.1°F24.5°C 76% 1.0 mph SW1.6 kmh SW 5.0 mph8.0 kmh 30.07 in1018.3 mb 0.00 in0.0 mm 0.00 in0.0 mm 0.00 in0.0 mm
09:30 AM 83.2°F28.4°C 76.0°F24.4°C 79% 1.2 mph SW1.9 kmh SW 6.0 mph9.7 kmh 30.08 in1018.6 mb 0.00 in0.0 mm 0.00 in0.0 mm 0.00 in0.0 mm
09:20 AM 82.5°F28.1°C 74.9°F23.8°C 78% 1.1 mph SW1.8 kmh SW 5.0 mph8.0 kmh 30.09 in1019.0 mb 0.00 in0.0 mm 0.00 in0.0 mm 0.00 in0.0 mm
09:10 AM 81.7°F27.6°C 74.5°F23.6°C 79% 1.6 mph SW2.6 kmh SW 6.0 mph9.7 kmh 30.09 in1019.0 mb 0.00 in0.0 mm 0.00 in0.0 mm 0.00 in0.0 mm
09:00 AM 81.5°F27.5°C 74.7°F23.7°C 80% 1.0 mph SW1.6 kmh SW 5.0 mph8.0 kmh 30.09 in1019.0 mb 0.00 in0.0 mm 0.00 in0.0 mm 0.00 in0.0 mm
08:50 AM 81.6°F27.6°C 74.5°F23.6°C 79% 1.9 mph SW3.1 kmh SW 4.0 mph6.4 kmh 30.09 in1019.0 mb 0.00 in0.0 mm 0.00 in0.0 mm 0.00 in0.0 mm
08:40 AM 81.2°F27.3°C 74.4°F23.6°C 80% 2.0 mph SW3.2 kmh SW 7.0 mph11.3 kmh 30.08 in1018.6 mb 0.00 in0.0 mm 0.00 in0.0 mm 0.00 in0.0 mm
08:30 AM 80.6°F27.0°C 74.2°F23.4°C 81% 2.3 mph SW3.7 kmh SW 9.0 mph14.5 kmh 30.08 in1018.6 mb 0.00 in0.0 mm 0.00 in0.0 mm 0.00 in0.0 mm
08:20 AM 80.1°F26.7°C 73.7°F23.2°C 81% 1.3 mph SW2.1 kmh SW 7.0 mph11.3 kmh 30.08 in1018.6 mb 0.00 in0.0 mm 0.00 in0.0 mm 0.00 in0.0 mm
08:10 AM 79.5°F26.4°C 74.2°F23.4°C 84% 1.0 mph SW1.6 kmh SW 5.0 mph8.0 kmh 30.09 in1019.0 mb 0.00 in0.0 mm 0.00 in0.0 mm 0.00 in0.0 mm
08:00 AM 78.6°F25.9°C 74.7°F23.7°C 88% 1.5 mph SW2.4 kmh SW 5.0 mph8.0 kmh 30.09 in1019.0 mb 0.00 in0.0 mm 0.00 in0.0 mm 0.00 in0.0 mm
07:50 AM 77.9°F25.5°C 74.1°F23.4°C 88% 0.9 mph SW1.4 kmh SW 6.0 mph9.7 kmh 30.09 in1019.0 mb 0.00 in0.0 mm 0.00 in0.0 mm 0.00 in0.0 mm
07:40 AM 77.1°F25.1°C 73.6°F23.1°C 89% 1.0 mph SW1.6 kmh SW 5.0 mph8.0 kmh 30.09 in1019.0 mb 0.00 in0.0 mm 0.00 in0.0 mm 0.00 in0.0 mm
07:30 AM 76.6°F24.8°C 73.4°F23.0°C 90% Calm Calm 4.0 mph6.4 kmh 30.09 in1019.0 mb 0.00 in0.0 mm 0.00 in0.0 mm 0.00 in0.0 mm
07:20 AM 76.4°F24.7°C 73.9°F23.3°C 92% Calm Calm 2.0 mph3.2 kmh 30.09 in1019.0 mb 0.00 in0.0 mm 0.00 in0.0 mm 0.00 in0.0 mm
07:10 AM 76.0°F24.4°C 73.5°F23.1°C 92% Calm Calm 1.0 mph1.6 kmh 30.09 in1019.0 mb 0.00 in0.0 mm 0.00 in0.0 mm 0.00 in0.0 mm
07:00 AM 74.1°F23.4°C 72.6°F22.6°C 95% Calm Calm 1.0 mph1.6 kmh 30.09 in1019.0 mb 0.00 in0.0 mm 0.00 in0.0 mm 0.00 in0.0 mm
06:50 AM 72.0°F22.2°C 71.4°F21.9°C 98% Calm Calm 1.0 mph1.6 kmh 30.09 in1019.0 mb 0.00 in0.0 mm 0.00 in0.0 mm 0.00 in0.0 mm
06:40 AM 70.0°F21.1°C 70.0°F21.1°C 100% Calm Calm -- 30.09 in1019.0 mb 0.00 in0.0 mm 0.00 in0.0 mm 0.00 in0.0 mm
06:30 AM 67.6°F19.8°C 67.6°F19.8°C 100% Calm Calm -- 30.09 in1019.0 mb 0.00 in0.0 mm 0.00 in0.0 mm 0.00 in0.0 mm
06:20 AM 65.5°F18.6°C 65.5°F18.6°C 100% Calm Calm -- 30.09 in1019.0 mb 0.00 in0.0 mm 0.00 in0.0 mm 0.00 in0.0 mm
06:10 AM 64.9°F18.3°C 64.9°F18.3°C 100% Calm Calm -- 30.09 in1019.0 mb 0.00 in0.0 mm 0.00 in0.0 mm 0.00 in0.0 mm
06:00 AM 64.2°F17.9°C 64.2°F17.9°C 100% Calm Calm -- 30.09 in1019.0 mb 0.00 in0.0 mm 0.00 in0.0 mm 0.00 in0.0 mm
05:50 AM 63.7°F17.6°C 63.7°F17.6°C 100% Calm Calm -- 30.08 in1018.6 mb 0.00 in0.0 mm 0.00 in0.0 mm 0.00 in0.0 mm
05:40 AM 63.4°F17.4°C 63.4°F17.4°C 100% Calm Calm -- 30.08 in1018.6 mb 0.00 in0.0 mm 0.00 in0.0 mm 0.00 in0.0 mm
05:30 AM 63.5°F17.5°C 63.5°F17.5°C 100% Calm Calm -- 30.07 in1018.3 mb 0.00 in0.0 mm 0.00 in0.0 mm 0.00 in0.0 mm
05:20 AM 63.5°F17.5°C 63.5°F17.5°C 100% Calm Calm -- 30.07 in1018.3 mb 0.00 in0.0 mm 0.00 in0.0 mm 0.00 in0.0 mm
05:10 AM 63.7°F17.6°C 63.7°F17.6°C 100% Calm Calm -- 30.07 in1018.3 mb 0.00 in0.0 mm 0.00 in0.0 mm 0.00 in0.0 mm
05:00 AM 64.3°F17.9°C 64.3°F17.9°C 100% Calm Calm -- 30.07 in1018.3 mb 0.00 in0.0 mm 0.00 in0.0 mm 0.00 in0.0 mm
04:50 AM 64.8°F18.2°C 64.8°F18.2°C 100% Calm Calm -- 30.07 in1018.3 mb 0.00 in0.0 mm 0.00 in0.0 mm 0.00 in0.0 mm
04:40 AM 64.9°F18.3°C 64.9°F18.3°C 100% Calm Calm -- 30.07 in1018.3 mb 0.00 in0.0 mm 0.00 in0.0 mm 0.00 in0.0 mm
04:30 AM 65.1°F18.4°C 65.1°F18.4°C 100% Calm Calm -- 30.06 in1017.9 mb 0.00 in0.0 mm 0.00 in0.0 mm 0.00 in0.0 mm
04:20 AM 65.1°F18.4°C 65.1°F18.4°C 100% Calm Calm -- 30.06 in1017.9 mb 0.00 in0.0 mm 0.00 in0.0 mm 0.00 in0.0 mm
04:10 AM 65.0°F18.3°C 65.0°F18.3°C 100% Calm Calm -- 30.06 in1017.9 mb 0.00 in0.0 mm 0.00 in0.0 mm 0.00 in0.0 mm
04:00 AM 65.3°F18.5°C 65.3°F18.5°C 100% Calm Calm -- 30.06 in1017.9 mb 0.00 in0.0 mm 0.00 in0.0 mm 0.00 in0.0 mm
03:50 AM 65.5°F18.6°C 65.5°F18.6°C 100% Calm Calm -- 30.05 in1017.6 mb 0.00 in0.0 mm 0.00 in0.0 mm 0.00 in0.0 mm
03:40 AM 65.4°F18.6°C 65.4°F18.6°C 100% Calm Calm -- 30.05 in1017.6 mb 0.00 in0.0 mm 0.00 in0.0 mm 0.00 in0.0 mm
03:30 AM 65.5°F18.6°C 65.5°F18.6°C 100% Calm Calm -- 30.05 in1017.6 mb 0.00 in0.0 mm 0.00 in0.0 mm 0.00 in0.0 mm
03:20 AM 65.6°F18.7°C 65.6°F18.7°C 100% Calm Calm -- 30.05 in1017.6 mb 0.00 in0.0 mm 0.00 in0.0 mm 0.00 in0.0 mm
03:10 AM 65.8°F18.8°C 65.8°F18.8°C 100% Calm Calm -- 30.04 in1017.3 mb 0.00 in0.0 mm 0.00 in0.0 mm 0.00 in0.0 mm
03:00 AM 66.0°F18.9°C 66.0°F18.9°C 100% Calm Calm -- 30.04 in1017.3 mb 0.00 in0.0 mm 0.00 in0.0 mm 0.00 in0.0 mm
02:50 AM 66.1°F18.9°C 66.1°F18.9°C 100% Calm Calm -- 30.04 in1017.3 mb 0.00 in0.0 mm 0.00 in0.0 mm 0.00 in0.0 mm
02:40 AM 66.5°F19.2°C 66.5°F19.2°C 100% Calm Calm -- 30.04 in1017.3 mb 0.00 in0.0 mm 0.00 in0.0 mm 0.00 in0.0 mm
02:30 AM 66.8°F19.3°C 66.8°F19.3°C 100% Calm Calm -- 30.04 in1017.3 mb 0.00 in0.0 mm 0.00 in0.0 mm 0.00 in0.0 mm
02:20 AM 67.3°F19.6°C 67.3°F19.6°C 100% Calm Calm -- 30.04 in1017.3 mb 0.00 in0.0 mm 0.00 in0.0 mm 0.00 in0.0 mm
02:10 AM 67.5°F19.7°C 67.5°F19.7°C 100% Calm Calm -- 30.05 in1017.6 mb 0.00 in0.0 mm 0.00 in0.0 mm 0.00 in0.0 mm
02:00 AM 67.7°F19.8°C 67.7°F19.8°C 100% Calm Calm -- 30.05 in1017.6 mb 0.00 in0.0 mm 0.00 in0.0 mm 0.00 in0.0 mm
01:50 AM 67.8°F19.9°C 67.8°F19.9°C 100% Calm Calm -- 30.05 in1017.6 mb 0.00 in0.0 mm 0.00 in0.0 mm 0.00 in0.0 mm
01:40 AM 68.3°F20.2°C 68.3°F20.2°C 100% Calm Calm -- 30.05 in1017.6 mb 0.00 in0.0 mm 0.00 in0.0 mm 0.00 in0.0 mm
01:30 AM 67.9°F19.9°C 67.9°F19.9°C 100% Calm Calm -- 30.05 in1017.6 mb 0.00 in0.0 mm 0.00 in0.0 mm 0.00 in0.0 mm
01:20 AM 67.5°F19.7°C 67.5°F19.7°C 100% Calm Calm -- 30.04 in1017.3 mb 0.00 in0.0 mm 0.00 in0.0 mm 0.00 in0.0 mm
01:10 AM 67.4°F19.7°C 67.4°F19.7°C 100% Calm Calm -- 30.04 in1017.3 mb 0.00 in0.0 mm 0.00 in0.0 mm 0.00 in0.0 mm
01:00 AM 67.7°F19.8°C 67.7°F19.8°C 100% Calm Calm -- 30.04 in1017.3 mb 0.00 in0.0 mm 0.00 in0.0 mm 0.00 in0.0 mm
12:50 AM 68.0°F20.0°C 67.7°F19.8°C 99% Calm Calm -- 30.04 in1017.3 mb 0.00 in0.0 mm 0.00 in0.0 mm 0.00 in0.0 mm
12:40 AM 68.4°F20.2°C 68.1°F20.1°C 99% Calm Calm -- 30.05 in1017.6 mb 0.00 in0.0 mm 0.00 in0.0 mm 0.00 in0.0 mm
12:30 AM 68.6°F20.3°C 67.7°F19.8°C 97% Calm Calm -- 30.04 in1017.3 mb 0.00 in0.0 mm 0.00 in0.0 mm 0.00 in0.0 mm
12:20 AM 69.0°F20.6°C 68.1°F20.1°C 97% Calm Calm -- 30.04 in1017.3 mb 0.00 in0.0 mm 0.00 in0.0 mm 0.00 in0.0 mm
12:10 AM 69.2°F20.7°C 68.0°F20.0°C 96% Calm Calm -- 30.05 in1017.6 mb 0.00 in0.0 mm 0.00 in0.0 mm 0.00 in0.0 mm
12:00 AM 69.5°F20.8°C 68.0°F20.0°C 95% Calm Calm -- 30.05 in1017.6 mb 0.00 in0.0 mm 0.00 in0.0 mm 0.00 in0.0 mm